Terminal Aerodrome Forecast
Issued by NWS El Paso, TX

Home | Current Version | Previous Version | Text Only | Print | Product List | Glossary On
Versions: 1 2 3 4 5 6 7 8 9 10 11 12
398
FTUS44 KEPZ 291738
TAFELP
TAF
KELP 291738Z 2918/3018 22009KT P6SM SCT120 SCT200
     FM301200 20008KT P6SM FEW070 BKN100=

USA.gov is the U.S. government's official web portal to all federal, state and local government web resources and services.